Time;durP1;ratioP1;P1;durP2;ratioP2;P2;SDS_P1;SDS_P2;PMS_P1;PMS_P2;Temp;Humidity;BMP_temperature;BMP_pressure;BME280_temperature;BME280_humidity;BME280_pressure;Samples;Min_cycle;Max_cycle;Signal;HPM_P1;HPM_P2
2022/07/05 00:00:32;;;;;;;;;;;;;;;;;;2206658;67;1099;-65
2022/07/05 00:03:05;;;;;;;;;;;;;;;;;;2206486;59;1382;-66
2022/07/05 00:05:38;;;;;;;;;;;;;;;;;;2209005;67;1239;-65
2022/07/05 00:08:12;;;;;;;;;;;;;;;;;;2207226;67;1218;-66
2022/07/05 00:10:45;;;;;;;;;;;;;;;;;;2206825;67;1936;-66
2022/07/05 00:13:18;;;;;;;;;;;;;;;;;;2206549;59;1223;-65
2022/07/05 00:15:54;;;;;;;;;;;;;;;;;;2207613;67;1090;-66
2022/07/05 00:18:27;;;;;;;;;;;;;;;;;;2206919;67;1229;-65
2022/07/05 00:21:01;;;;;;;;;;;;;;;;;;2207669;59;2215;-66
2022/07/05 00:23:34;;;;;;;;;;;;;;;;;;2207170;59;1408;-66
2022/07/05 00:26:07;;;;;;;;;;;;;;;;;;2207715;59;1219;-65
2022/07/05 00:28:41;;;;;;;;;;;;;;;;;;2207332;67;1206;-66
2022/07/05 00:31:17;;;;;;;;;;;;;;;;;;2206762;59;1924;-65
2022/07/05 00:33:50;;;;;;;;;;;;;;;;;;2207330;59;1157;-66
2022/07/05 00:36:23;;;;;;;;;;;;;;;;;;2208148;67;1127;-66
2022/07/05 00:38:56;;;;;;;;;;;;;;;;;;2208680;59;1242;-64
2022/07/05 00:41:30;;;;;;;;;;;;;;;;;;2207734;59;2021;-66
2022/07/05 00:44:05;;;;;;;;;;;;;;;;;;2206910;67;1406;-66
2022/07/05 00:46:41;;;;;;;;;;;;;;;;;;2206436;67;1133;-66
2022/07/05 00:49:14;;;;;;;;;;;;;;;;;;2207649;67;1227;-66
2022/07/05 00:51:47;;;;;;;;;;;;;;;;;;2207196;67;1936;-65
2022/07/05 00:54:21;;;;;;;;;;;;;;;;;;2206843;67;1925;-66
2022/07/05 00:56:54;;;;;;;;;;;;;;;;;;2208045;59;1450;-65
2022/07/05 00:59:28;;;;;;;;;;;;;;;;;;2206919;67;1218;-65
2022/07/05 01:02:03;;;;;;;;;;;;;;;;;;2206810;60;1276;-65
2022/07/05 01:04:37;;;;;;;;;;;;;;;;;;2207493;59;1421;-66
2022/07/05 01:07:10;;;;;;;;;;;;;;;;;;2208491;67;1154;-65
2022/07/05 01:09:43;;;;;;;;;;;;;;;;;;2206776;67;2277;-66
2022/07/05 01:12:16;;;;;;;;;;;;;;;;;;2207482;59;1208;-65
2022/07/05 01:14:50;;;;;;;;;;;;;;;;;;2206542;67;1077;-66
2022/07/05 01:17:26;;;;;;;;;;;;;;;;;;2207061;67;1100;-65
2022/07/05 01:19:59;;;;;;;;;;;;;;;;;;2207360;67;1318;-66
2022/07/05 01:22:41;;;;;;;;;;;;;;;;;;2205245;67;1288;-65
2022/07/05 01:25:14;;;;;;;;;;;;;;;;;;2207195;59;1248;-66
2022/07/05 01:27:48;;;;;;;;;;;;;;;;;;2207539;67;1254;-66
2022/07/05 01:30:22;;;;;;;;;;;;;;;;;;2203091;67;2171;-66
2022/07/05 01:32:55;;;;;;;;;;;;;;;;;;2207334;59;1158;-66
2022/07/05 01:35:29;;;;;;;;;;;;;;;;;;2207573;67;1207;-65
2022/07/05 01:38:05;;;;;;;;;;;;;;;;;;2207510;67;1192;-66
2022/07/05 01:40:38;;;;;;;;;;;;;;;;;;2208223;59;2185;-66
2022/07/05 01:43:11;;;;;;;;;;;;;;;;;;2208466;67;1159;-66
2022/07/05 01:45:46;;;;;;;;;;;;;;;;;;2206910;67;1247;-66
2022/07/05 01:48:21;;;;;;;;;;;;;;;;;;2207196;67;1357;-66
2022/07/05 01:50:56;;;;;;;;;;;;;;;;;;2208077;67;1946;-66
2022/07/05 01:53:33;;;;;;;;;;;;;;;;;;2207608;67;1224;-66
2022/07/05 01:56:06;;;;;;;;;;;;;;;;;;2207168;67;1198;-66
2022/07/05 01:58:40;;;;;;;;;;;;;;;;;;2206692;67;1267;-66
2022/07/05 02:01:14;;;;;;;;;;;;;;;;;;2207381;67;1193;-66
2022/07/05 02:03:47;;;;;;;;;;;;;;;;;;2207095;59;1414;-65
2022/07/05 02:06:21;;;;;;;;;;;;;;;;;;2206815;67;1188;-66
2022/07/05 02:08:57;;;;;;;;;;;;;;;;;;2207263;67;1241;-66
2022/07/05 02:11:30;;;;;;;;;;;;;;;;;;2208103;59;1983;-66
2022/07/05 02:14:03;;;;;;;;;;;;;;;;;;2208184;59;1278;-65
2022/07/05 02:16:36;;;;;;;;;;;;;;;;;;2208118;67;1168;-65
2022/07/05 02:19:09;;;;;;;;;;;;;;;;;;2207933;67;1204;-65
2022/07/05 02:21:43;;;;;;;;;;;;;;;;;;2206957;59;1438;-65
2022/07/05 02:24:18;;;;;;;;;;;;;;;;;;2208391;59;1315;-66
2022/07/05 02:26:52;;;;;;;;;;;;;;;;;;2206977;59;1275;-66
2022/07/05 02:29:25;;;;;;;;;;;;;;;;;;2206122;67;1219;-66
2022/07/05 02:31:58;;;;;;;;;;;;;;;;;;2207785;59;1927;-65
2022/07/05 02:34:32;;;;;;;;;;;;;;;;;;2205812;67;1283;-66
2022/07/05 02:37:05;;;;;;;;;;;;;;;;;;2206935;67;1191;-66
2022/07/05 02:39:41;;;;;;;;;;;;;;;;;;2208505;67;1123;-66
2022/07/05 02:42:14;;;;;;;;;;;;;;;;;;2207131;67;1094;-66
2022/07/05 02:44:47;;;;;;;;;;;;;;;;;;2206992;67;1129;-65
2022/07/05 02:47:21;;;;;;;;;;;;;;;;;;2208633;67;1221;-64
2022/07/05 02:49:54;;;;;;;;;;;;;;;;;;2207187;67;1260;-66
2022/07/05 02:52:27;;;;;;;;;;;;;;;;;;2208331;67;1942;-66
2022/07/05 02:55:03;;;;;;;;;;;;;;;;;;2207928;67;1216;-66
2022/07/05 02:57:39;;;;;;;;;;;;;;;;;;2208337;59;1199;-66
2022/07/05 03:00:13;;;;;;;;;;;;;;;;;;2207031;67;1204;-66
2022/07/05 03:02:46;;;;;;;;;;;;;;;;;;2207181;67;1117;-66
2022/07/05 03:05:19;;;;;;;;;;;;;;;;;;2206801;59;2716;-64
2022/07/05 03:07:52;;;;;;;;;;;;;;;;;;2207582;59;1347;-66
2022/07/05 03:10:28;;;;;;;;;;;;;;;;;;2207081;67;1993;-66
2022/07/05 03:13:01;;;;;;;;;;;;;;;;;;2206973;59;1295;-64
2022/07/05 03:15:34;;;;;;;;;;;;;;;;;;2206400;67;1255;-65
2022/07/05 03:18:08;;;;;;;;;;;;;;;;;;2207659;67;1215;-65
2022/07/05 03:20:41;;;;;;;;;;;;;;;;;;2208766;67;1232;-66
2022/07/05 03:23:14;;;;;;;;;;;;;;;;;;2207337;67;1327;-66
2022/07/05 03:25:50;;;;;;;;;;;;;;;;;;2206167;67;1182;-65
2022/07/05 03:28:23;;;;;;;;;;;;;;;;;;2206723;67;1230;-65
2022/07/05 03:30:56;;;;;;;;;;;;;;;;;;2205966;59;2095;-65
2022/07/05 03:33:30;;;;;;;;;;;;;;;;;;2205806;67;1292;-66
2022/07/05 03:36:03;;;;;;;;;;;;;;;;;;2206548;67;1182;-66
2022/07/05 03:38:36;;;;;;;;;;;;;;;;;;2206311;59;1219;-65
2022/07/05 03:41:12;;;;;;;;;;;;;;;;;;2206830;67;1265;-66
2022/07/05 03:43:45;;;;;;;;;;;;;;;;;;2206078;59;1817;-65
2022/07/05 03:46:18;;;;;;;;;;;;;;;;;;2206417;67;1215;-66
2022/07/05 03:48:52;;;;;;;;;;;;;;;;;;2206219;67;1243;-66
2022/07/05 03:51:25;;;;;;;;;;;;;;;;;;2205246;67;1926;-65
2022/07/05 03:53:58;;;;;;;;;;;;;;;;;;2206374;60;1126;-66
2022/07/05 03:56:34;;;;;;;;;;;;;;;;;;2205172;59;1125;-65
2022/07/05 03:59:08;;;;;;;;;;;;;;;;;;2205442;59;1287;-67
2022/07/05 04:01:41;;;;;;;;;;;;;;;;;;2206314;67;1189;-66
2022/07/05 04:04:14;;;;;;;;;;;;;;;;;;2207563;67;1208;-65
2022/07/05 04:06:47;;;;;;;;;;;;;;;;;;2206992;67;1157;-65
2022/07/05 04:09:21;;;;;;;;;;;;;;;;;;2206212;59;1250;-66
2022/07/05 04:11:56;;;;;;;;;;;;;;;;;;2205856;59;1927;-66
2022/07/05 04:14:30;;;;;;;;;;;;;;;;;;2206430;59;1133;-66
2022/07/05 04:17:03;;;;;;;;;;;;;;;;;;2205702;67;1198;-66
2022/07/05 04:19:36;;;;;;;;;;;;;;;;;;2207297;67;1269;-66
2022/07/05 04:22:09;;;;;;;;;;;;;;;;;;2206576;67;1188;-65
2022/07/05 04:27:31;;;;;;;;;;;;;;;;;;2207856;59;1455;-64
2022/07/05 04:30:04;;;;;;;;;;;;;;;;;;2206159;67;1318;-66
2022/07/05 04:32:37;;;;;;;;;;;;;;;;;;2207593;67;1933;-66
2022/07/05 04:35:10;;;;;;;;;;;;;;;;;;2207720;67;1244;-65
2022/07/05 04:37:44;;;;;;;;;;;;;;;;;;2206106;67;1220;-66
2022/07/05 04:40:17;;;;;;;;;;;;;;;;;;2207148;67;1275;-66
2022/07/05 04:42:53;;;;;;;;;;;;;;;;;;2207585;59;2280;-65
2022/07/05 04:45:26;;;;;;;;;;;;;;;;;;2206549;67;1235;-66
2022/07/05 04:47:59;;;;;;;;;;;;;;;;;;2207804;67;1255;-66
2022/07/05 04:50:33;;;;;;;;;;;;;;;;;;2206800;67;1092;-66
2022/07/05 04:53:06;;;;;;;;;;;;;;;;;;2207478;59;1929;-66
2022/07/05 04:55:39;;;;;;;;;;;;;;;;;;2207411;67;1150;-66
2022/07/05 04:58:15;;;;;;;;;;;;;;;;;;2206513;67;1797;-66
2022/07/05 05:00:48;;;;;;;;;;;;;;;;;;2207473;67;1134;-66
2022/07/05 05:03:21;;;;;;;;;;;;;;;;;;2206849;59;1359;-65
2022/07/05 05:05:55;;;;;;;;;;;;;;;;;;2206929;67;1248;-66
2022/07/05 05:08:28;;;;;;;;;;;;;;;;;;2207106;67;1262;-66
2022/07/05 05:11:01;;;;;;;;;;;;;;;;;;2205856;59;1956;-66
2022/07/05 05:13:37;;;;;;;;;;;;;;;;;;2208064;59;1720;-65
2022/07/05 05:16:10;;;;;;;;;;;;;;;;;;2208858;67;1254;-66
2022/07/05 05:18:44;;;;;;;;;;;;;;;;;;2208573;67;1204;-65
2022/07/05 05:21:17;;;;;;;;;;;;;;;;;;2207838;67;1445;-65
2022/07/05 05:23:50;;;;;;;;;;;;;;;;;;2208159;67;1245;-64
2022/07/05 05:26:24;;;;;;;;;;;;;;;;;;2208325;67;1131;-66
2022/07/05 05:28:59;;;;;;;;;;;;;;;;;;2210175;67;1232;-65
2022/07/05 05:31:33;;;;;;;;;;;;;;;;;;2206571;67;2191;-64
2022/07/05 05:34:06;;;;;;;;;;;;;;;;;;2206708;67;1276;-65
2022/07/05 05:36:39;;;;;;;;;;;;;;;;;;2208062;67;1099;-66
2022/07/05 05:39:12;;;;;;;;;;;;;;;;;;2208354;67;1200;-65
2022/07/05 05:41:46;;;;;;;;;;;;;;;;;;2207305;67;1120;-66
2022/07/05 05:44:21;;;;;;;;;;;;;;;;;;2208715;67;1192;-64
2022/07/05 05:46:55;;;;;;;;;;;;;;;;;;2208318;67;1068;-66
2022/07/05 05:49:28;;;;;;;;;;;;;;;;;;2208164;67;1243;-65
2022/07/05 05:52:01;;;;;;;;;;;;;;;;;;2208334;67;1937;-65
2022/07/05 05:54:34;;;;;;;;;;;;;;;;;;2205946;67;1129;-66
2022/07/05 05:57:08;;;;;;;;;;;;;;;;;;2207514;67;1245;-66
2022/07/05 05:59:44;;;;;;;;;;;;;;;;;;2207089;67;1208;-66
2022/07/05 06:02:17;;;;;;;;;;;;;;;;;;2207523;67;1217;-65
2022/07/05 06:04:50;;;;;;;;;;;;;;;;;;2207557;59;1255;-66
2022/07/05 06:07:23;;;;;;;;;;;;;;;;;;2206971;67;1277;-66
2022/07/05 06:09:57;;;;;;;;;;;;;;;;;;2206133;59;1638;-65
2022/07/05 06:12:30;;;;;;;;;;;;;;;;;;2207341;59;2094;-64
2022/07/05 06:15:06;;;;;;;;;;;;;;;;;;2207022;67;1317;-66
2022/07/05 06:17:39;;;;;;;;;;;;;;;;;;2206182;67;1263;-66
2022/07/05 06:20:14;;;;;;;;;;;;;;;;;;2207837;67;1109;-65
2022/07/05 06:22:47;;;;;;;;;;;;;;;;;;2206805;67;1148;-66
2022/07/05 06:25:21;;;;;;;;;;;;;;;;;;2206023;59;1288;-65
2022/07/05 06:27:55;;;;;;;;;;;;;;;;;;2207608;67;1239;-64
2022/07/05 06:30:33;;;;;;;;;;;;;;;;;;2205511;59;1933;-64
2022/07/05 06:33:06;;;;;;;;;;;;;;;;;;2207269;67;1975;-66
2022/07/05 06:35:39;;;;;;;;;;;;;;;;;;2206766;67;1112;-66
2022/07/05 06:38:13;;;;;;;;;;;;;;;;;;2207093;67;1189;-65
2022/07/05 06:40:46;;;;;;;;;;;;;;;;;;2207549;67;1120;-66
2022/07/05 06:43:19;;;;;;;;;;;;;;;;;;2208565;67;1274;-63
2022/07/05 06:45:55;;;;;;;;;;;;;;;;;;2207280;67;1119;-64
2022/07/05 06:48:29;;;;;;;;;;;;;;;;;;2205284;59;1244;-64
2022/07/05 06:51:02;;;;;;;;;;;;;;;;;;2205733;67;1170;-66
2022/07/05 06:53:35;;;;;;;;;;;;;;;;;;2205174;67;1930;-63
2022/07/05 06:56:08;;;;;;;;;;;;;;;;;;2205415;67;1277;-66
2022/07/05 06:58:41;;;;;;;;;;;;;;;;;;2205717;67;1137;-65
2022/07/05 07:01:17;;;;;;;;;;;;;;;;;;2205633;67;1331;-66
2022/07/05 07:03:50;;;;;;;;;;;;;;;;;;2206434;59;1264;-66
2022/07/05 07:06:24;;;;;;;;;;;;;;;;;;2205682;67;1147;-65
2022/07/05 07:11:47;;;;;;;;;;;;;;;;;;2205338;59;1930;-66
2022/07/05 07:14:20;;;;;;;;;;;;;;;;;;2205460;59;1232;-66
2022/07/05 07:16:56;;;;;;;;;;;;;;;;;;2205338;67;1159;-66
2022/07/05 07:19:29;;;;;;;;;;;;;;;;;;2204847;67;1278;-67
2022/07/05 07:22:02;;;;;;;;;;;;;;;;;;2206786;67;1208;-66
2022/07/05 07:24:35;;;;;;;;;;;;;;;;;;2206697;67;1207;-65
2022/07/05 07:27:09;;;;;;;;;;;;;;;;;;2205789;67;1285;-66
2022/07/05 07:29:42;;;;;;;;;;;;;;;;;;2206374;60;1154;-66
2022/07/05 07:32:18;;;;;;;;;;;;;;;;;;2206039;59;2011;-66
2022/07/05 07:34:52;;;;;;;;;;;;;;;;;;2205468;67;1104;-66
2022/07/05 07:37:25;;;;;;;;;;;;;;;;;;2205820;67;1175;-65
2022/07/05 07:39:58;;;;;;;;;;;;;;;;;;2205958;67;1263;-66
2022/07/05 07:42:31;;;;;;;;;;;;;;;;;;2205683;59;1945;-66
2022/07/05 07:45:05;;;;;;;;;;;;;;;;;;2206498;67;1115;-65
2022/07/05 07:47:41;;;;;;;;;;;;;;;;;;2205044;67;1221;-67
2022/07/05 07:50:14;;;;;;;;;;;;;;;;;;2207203;67;1188;-67
2022/07/05 07:52:47;;;;;;;;;;;;;;;;;;2205401;67;1922;-66
2022/07/05 07:55:21;;;;;;;;;;;;;;;;;;2206092;67;1254;-64
2022/07/05 07:57:54;;;;;;;;;;;;;;;;;;2205830;67;1243;-65
2022/07/05 08:00:28;;;;;;;;;;;;;;;;;;2205193;59;1687;-66
2022/07/05 08:03:03;;;;;;;;;;;;;;;;;;2207047;59;1275;-66
2022/07/05 08:05:36;;;;;;;;;;;;;;;;;;2205102;59;1801;-65
2022/07/05 08:08:10;;;;;;;;;;;;;;;;;;2206819;67;1228;-65
2022/07/05 08:10:43;;;;;;;;;;;;;;;;;;2206433;59;1244;-65
2022/07/05 08:13:16;;;;;;;;;;;;;;;;;;2207103;59;1937;-65
2022/07/05 08:15:49;;;;;;;;;;;;;;;;;;2206485;67;1156;-66
2022/07/05 08:24:04;;;;;;;;;;;;;;;;;;2208155;67;1197;-63
2022/07/05 08:26:37;;;;;;;;;;;;;;;;;;2206757;59;1284;-65
2022/07/05 08:29:11;;;;;;;;;;;;;;;;;;2208124;67;1239;-63
2022/07/05 08:31:45;;;;;;;;;;;;;;;;;;2206946;59;2013;-64
2022/07/05 08:34:22;;;;;;;;;;;;;;;;;;2206757;59;4959;-65
2022/07/05 08:36:55;;;;;;;;;;;;;;;;;;2205879;67;1108;-63
2022/07/05 08:39:29;;;;;;;;;;;;;;;;;;2206828;67;1295;-67
2022/07/05 08:42:03;;;;;;;;;;;;;;;;;;2206634;59;1917;-67
2022/07/05 08:44:38;;;;;;;;;;;;;;;;;;2206406;67;1150;-65
2022/07/05 08:47:12;;;;;;;;;;;;;;;;;;2206487;67;1176;-67
2022/07/05 08:49:50;;;;;;;;;;;;;;;;;;2206312;59;1298;-67
2022/07/05 08:52:23;;;;;;;;;;;;;;;;;;2206706;67;1995;-67
2022/07/05 08:54:57;;;;;;;;;;;;;;;;;;2207362;59;1166;-67
2022/07/05 08:57:30;;;;;;;;;;;;;;;;;;2205941;67;1198;-65
2022/07/05 09:00:04;;;;;;;;;;;;;;;;;;2204795;67;1286;-65
2022/07/05 09:02:37;;;;;;;;;;;;;;;;;;2206040;59;1487;-67
2022/07/05 09:05:15;;;;;;;;;;;;;;;;;;2206682;67;1093;-67
2022/07/05 09:07:54;;;;;;;;;;;;;;;;;;2205968;67;1215;-66
2022/07/05 09:10:28;;;;;;;;;;;;;;;;;;2207710;67;2062;-66
2022/07/05 09:13:01;;;;;;;;;;;;;;;;;;2205895;59;1934;-65
2022/07/05 09:15:34;;;;;;;;;;;;;;;;;;2205130;67;1103;-65
2022/07/05 09:18:07;;;;;;;;;;;;;;;;;;2204707;59;1200;-65
2022/07/05 09:20:46;;;;;;;;;;;;;;;;;;2205152;67;1188;-67
2022/07/05 09:23:23;;;;;;;;;;;;;;;;;;2205585;59;1256;-66
2022/07/05 09:26:04;;;;;;;;;;;;;;;;;;2205480;67;1076;-67
2022/07/05 09:28:37;;;;;;;;;;;;;;;;;;2204225;67;1218;-66
2022/07/05 09:31:27;;;;;;;;;;;;;;;;;;2204683;67;1928;-67
2022/07/05 09:34:07;;;;;;;;;;;;;;;;;;2204545;67;1969;-65
2022/07/05 09:36:57;;;;;;;;;;;;;;;;;;2206130;67;1040;-65
2022/07/05 09:39:37;;;;;;;;;;;;;;;;;;2205210;67;1236;-66
2022/07/05 09:42:17;;;;;;;;;;;;;;;;;;2205684;59;2053;-66
2022/07/05 09:44:52;;;;;;;;;;;;;;;;;;2206309;67;1186;-67
2022/07/05 09:47:26;;;;;;;;;;;;;;;;;;2205999;67;1097;-65
2022/07/05 09:50:04;;;;;;;;;;;;;;;;;;2205355;67;1141;-66
2022/07/05 09:52:41;;;;;;;;;;;;;;;;;;2206306;67;1937;-65
2022/07/05 09:55:16;;;;;;;;;;;;;;;;;;2205344;67;1247;-66
2022/07/05 09:57:50;;;;;;;;;;;;;;;;;;2205702;67;1229;-65
2022/07/05 10:00:24;;;;;;;;;;;;;;;;;;2204998;67;1243;-66
2022/07/05 10:03:00;;;;;;;;;;;;;;;;;;2205295;67;1418;-65
2022/07/05 10:05:34;;;;;;;;;;;;;;;;;;2205552;67;996;-66
2022/07/05 10:08:11;;;;;;;;;;;;;;;;;;2205817;67;1225;-65
2022/07/05 10:10:47;;;;;;;;;;;;;;;;;;2205525;59;1442;-67
2022/07/05 10:13:20;;;;;;;;;;;;;;;;;;2202262;59;1933;-67
2022/07/05 10:15:54;;;;;;;;;;;;;;;;;;2204933;67;1322;-64
2022/07/05 10:18:31;;;;;;;;;;;;;;;;;;2206834;67;1304;-67
2022/07/05 10:21:05;;;;;;;;;;;;;;;;;;2205928;67;1092;-67
2022/07/05 10:23:41;;;;;;;;;;;;;;;;;;2205612;67;1100;-67
2022/07/05 10:26:15;;;;;;;;;;;;;;;;;;2206147;67;1200;-66
2022/07/05 10:28:49;;;;;;;;;;;;;;;;;;2205714;67;1230;-65
2022/07/05 10:31:23;;;;;;;;;;;;;;;;;;2206184;59;2019;-65
2022/07/05 10:34:00;;;;;;;;;;;;;;;;;;2205975;67;1926;-66
2022/07/05 10:36:34;;;;;;;;;;;;;;;;;;2206211;67;1157;-67
2022/07/05 10:39:11;;;;;;;;;;;;;;;;;;2206153;67;1238;-67
2022/07/05 10:41:46;;;;;;;;;;;;;;;;;;2206662;59;1993;-67
2022/07/05 10:44:28;;;;;;;;;;;;;;;;;;2206884;59;1082;-65
2022/07/05 10:47:12;;;;;;;;;;;;;;;;;;2206309;67;1156;-65
2022/07/05 10:49:45;;;;;;;;;;;;;;;;;;2205612;67;1211;-64
2022/07/05 10:52:26;;;;;;;;;;;;;;;;;;2206142;67;1193;-65
2022/07/05 10:55:22;;;;;;;;;;;;;;;;;;2205455;67;1968;-65
2022/07/05 10:58:14;;;;;;;;;;;;;;;;;;2205706;67;1307;-67
2022/07/05 11:00:48;;;;;;;;;;;;;;;;;;2204641;67;1103;-66
2022/07/05 11:03:38;;;;;;;;;;;;;;;;;;2206529;67;1287;-66
2022/07/05 11:06:11;;;;;;;;;;;;;;;;;;2205866;67;1441;-65
2022/07/05 11:09:03;;;;;;;;;;;;;;;;;;2206109;67;1287;-66
2022/07/05 11:11:40;;;;;;;;;;;;;;;;;;2206085;59;1455;-66
2022/07/05 11:14:29;;;;;;;;;;;;;;;;;;2206602;59;1934;-66
2022/07/05 11:17:16;;;;;;;;;;;;;;;;;;2205549;67;1116;-66
2022/07/05 11:20:02;;;;;;;;;;;;;;;;;;2206420;67;1243;-65
2022/07/05 11:22:36;;;;;;;;;;;;;;;;;;2205109;67;1096;-64
2022/07/05 11:25:10;;;;;;;;;;;;;;;;;;2206458;67;1239;-63
2022/07/05 11:28:08;;;;;;;;;;;;;;;;;;2206943;67;1212;-64
2022/07/05 11:31:02;;;;;;;;;;;;;;;;;;2205552;59;2021;-65
2022/07/05 11:33:40;;;;;;;;;;;;;;;;;;2205061;67;1936;-66
2022/07/05 11:36:25;;;;;;;;;;;;;;;;;;2206382;67;1188;-64
2022/07/05 11:39:16;;;;;;;;;;;;;;;;;;2206024;59;2136;-64
2022/07/05 11:41:50;;;;;;;;;;;;;;;;;;2206140;59;2020;-64
2022/07/05 11:44:27;;;;;;;;;;;;;;;;;;2205260;67;1302;-67
2022/07/05 11:47:01;;;;;;;;;;;;;;;;;;2204933;67;1213;-65
2022/07/05 11:49:34;;;;;;;;;;;;;;;;;;2203861;67;1191;-63
2022/07/05 11:52:07;;;;;;;;;;;;;;;;;;2205338;59;1121;-65
2022/07/05 11:54:40;;;;;;;;;;;;;;;;;;2205024;67;2027;-64
2022/07/05 11:57:14;;;;;;;;;;;;;;;;;;2204876;67;1240;-65
2022/07/05 11:59:50;;;;;;;;;;;;;;;;;;2206102;67;1228;-64
2022/07/05 12:02:24;;;;;;;;;;;;;;;;;;2204858;67;1179;-65
2022/07/05 12:04:58;;;;;;;;;;;;;;;;;;2205653;59;1273;-66
2022/07/05 12:07:31;;;;;;;;;;;;;;;;;;2204990;67;1167;-66
2022/07/05 12:12:54;;;;;;;;;;;;;;;;;;2205307;59;1659;-65
2022/07/05 12:15:31;;;;;;;;;;;;;;;;;;2204387;67;1933;-64
2022/07/05 12:18:05;;;;;;;;;;;;;;;;;;2205393;67;1251;-64
2022/07/05 12:20:39;;;;;;;;;;;;;;;;;;2204860;67;1139;-66
2022/07/05 12:33:51;;;;;;;;;;;;;;;;;;2208921;59;2564;-55
2022/07/05 12:36:27;;;;;;;;;;;;;;;;;;2209962;59;1157;-54
2022/07/05 12:39:01;;;;;;;;;;;;;;;;;;2210336;67;1099;-57
2022/07/05 12:41:34;;;;;;;;;;;;;;;;;;2209240;59;1853;-56
2022/07/05 12:44:09;;;;;;;;;;;;;;;;;;2206323;67;1168;-53
2022/07/05 12:46:44;;;;;;;;;;;;;;;;;;2206574;67;1220;-54
2022/07/05 12:49:20;;;;;;;;;;;;;;;;;;2207474;59;1234;-55
2022/07/05 12:51:53;;;;;;;;;;;;;;;;;;2207796;67;1236;-56
2022/07/05 13:00:08;;;;;;;;;;;;;;;;;;2207341;67;1135;-56
2022/07/05 13:02:42;;;;;;;;;;;;;;;;;;2206956;59;1406;-54
2022/07/05 13:05:25;;;;;;;;;;;;;;;;;;2208328;67;1152;-55
2022/07/05 13:07:58;;;;;;;;;;;;;;;;;;2206617;59;1323;-54
2022/07/05 13:10:32;;;;;;;;;;;;;;;;;;2206743;59;1381;-56
2022/07/05 13:13:05;;;;;;;;;;;;;;;;;;2206635;59;1283;-55
2022/07/05 13:15:39;;;;;;;;;;;;;;;;;;2206964;67;1922;-53
2022/07/05 13:18:12;;;;;;;;;;;;;;;;;;2207013;67;1229;-55
2022/07/05 13:20:49;;;;;;;;;;;;;;;;;;2206908;67;1295;-57
2022/07/05 13:23:23;;;;;;;;;;;;;;;;;;2207224;67;1269;-54
2022/07/05 13:25:56;;;;;;;;;;;;;;;;;;2206944;59;1367;-54
2022/07/05 13:28:29;;;;;;;;;;;;;;;;;;2206636;59;1483;-54
2022/07/05 13:31:02;;;;;;;;;;;;;;;;;;2206430;59;1952;-55
2022/07/05 13:33:35;;;;;;;;;;;;;;;;;;2206749;59;1175;-54
2022/07/05 13:36:11;;;;;;;;;;;;;;;;;;2208125;67;1932;-53
2022/07/05 13:38:45;;;;;;;;;;;;;;;;;;2207460;67;1299;-59
2022/07/05 13:41:18;;;;;;;;;;;;;;;;;;2208582;59;1962;-56
2022/07/05 13:43:51;;;;;;;;;;;;;;;;;;2208003;67;1188;-54
2022/07/05 13:46:24;;;;;;;;;;;;;;;;;;2207593;59;1269;-54
2022/07/05 13:48:57;;;;;;;;;;;;;;;;;;2207481;67;1087;-54
2022/07/05 13:51:33;;;;;;;;;;;;;;;;;;2207804;67;1230;-54
2022/07/05 13:54:06;;;;;;;;;;;;;;;;;;2207879;67;1959;-53
2022/07/05 13:56:40;;;;;;;;;;;;;;;;;;2207959;67;1137;-54
2022/07/05 13:59:13;;;;;;;;;;;;;;;;;;2207744;67;1194;-55
2022/07/05 14:01:46;;;;;;;;;;;;;;;;;;2207902;67;1230;-54
2022/07/05 14:04:20;;;;;;;;;;;;;;;;;;2208424;59;1254;-54
2022/07/05 14:06:56;;;;;;;;;;;;;;;;;;2206747;59;1188;-54
2022/07/05 14:09:29;;;;;;;;;;;;;;;;;;2207349;67;1123;-54
2022/07/05 14:12:02;;;;;;;;;;;;;;;;;;2206783;59;1307;-60
2022/07/05 14:14:35;;;;;;;;;;;;;;;;;;2207301;67;1995;-54
2022/07/05 14:17:08;;;;;;;;;;;;;;;;;;2206760;67;1196;-56
2022/07/05 14:19:41;;;;;;;;;;;;;;;;;;2207199;67;1152;-54
2022/07/05 14:22:17;;;;;;;;;;;;;;;;;;2207260;67;1249;-55
2022/07/05 14:24:50;;;;;;;;;;;;;;;;;;2207254;67;1098;-54
2022/07/05 14:27:24;;;;;;;;;;;;;;;;;;2207587;59;1234;-56
2022/07/05 14:29:57;;;;;;;;;;;;;;;;;;2207060;67;1078;-55
2022/07/05 14:32:30;;;;;;;;;;;;;;;;;;2206752;59;2190;-58
2022/07/05 14:35:03;;;;;;;;;;;;;;;;;;2207527;67;1935;-55
2022/07/05 14:37:39;;;;;;;;;;;;;;;;;;2207395;67;1024;-54
2022/07/05 14:40:13;;;;;;;;;;;;;;;;;;2207612;67;1192;-55
2022/07/05 14:42:46;;;;;;;;;;;;;;;;;;2207262;59;1924;-57
2022/07/05 14:45:19;;;;;;;;;;;;;;;;;;2207880;67;1177;-58
2022/07/05 14:47:52;;;;;;;;;;;;;;;;;;2207677;59;1095;-54
2022/07/05 14:50:26;;;;;;;;;;;;;;;;;;2207773;67;1184;-54
2022/07/05 14:53:07;;;;;;;;;;;;;;;;;;2207523;67;1236;-56
2022/07/05 14:55:41;;;;;;;;;;;;;;;;;;2207257;67;1937;-54
2022/07/05 14:58:14;;;;;;;;;;;;;;;;;;2207924;67;1327;-55
2022/07/05 15:00:47;;;;;;;;;;;;;;;;;;2207278;67;1111;-54
2022/07/05 15:03:20;;;;;;;;;;;;;;;;;;2206882;59;1291;-54
2022/07/05 15:05:54;;;;;;;;;;;;;;;;;;2206434;67;1269;-54
2022/07/05 15:08:30;;;;;;;;;;;;;;;;;;2206718;67;1149;-57
2022/07/05 15:11:04;;;;;;;;;;;;;;;;;;2206583;59;1254;-56
2022/07/05 15:13:37;;;;;;;;;;;;;;;;;;2206508;67;1171;-55
2022/07/05 15:16:11;;;;;;;;;;;;;;;;;;2207130;67;1941;-55
2022/07/05 15:18:45;;;;;;;;;;;;;;;;;;2206078;67;1140;-55
2022/07/05 15:21:18;;;;;;;;;;;;;;;;;;2207002;67;1196;-55
2022/07/05 15:23:55;;;;;;;;;;;;;;;;;;2205881;67;1114;-54
2022/07/05 15:26:30;;;;;;;;;;;;;;;;;;2206517;59;1308;-54
2022/07/05 15:29:05;;;;;;;;;;;;;;;;;;2206930;67;1247;-56
2022/07/05 15:31:38;;;;;;;;;;;;;;;;;;2206844;59;1833;-54
2022/07/05 15:34:25;;;;;;;;;;;;;;;;;;2206134;67;1252;-56
2022/07/05 15:36:58;;;;;;;;;;;;;;;;;;2206586;67;1960;-55
2022/07/05 15:39:36;;;;;;;;;;;;;;;;;;2206134;67;1492;-53
2022/07/05 15:42:10;;;;;;;;;;;;;;;;;;2206700;59;2076;-54
2022/07/05 15:44:43;;;;;;;;;;;;;;;;;;2206856;67;1042;-60
2022/07/05 15:47:16;;;;;;;;;;;;;;;;;;2206315;67;1232;-55
2022/07/05 15:49:49;;;;;;;;;;;;;;;;;;2206932;67;1261;-54
2022/07/05 15:52:22;;;;;;;;;;;;;;;;;;2206869;67;1290;-54
2022/07/05 15:54:58;;;;;;;;;;;;;;;;;;2206357;67;1918;-56
2022/07/05 15:57:31;;;;;;;;;;;;;;;;;;2206589;67;1076;-56
2022/07/05 16:00:05;;;;;;;;;;;;;;;;;;2206665;67;1132;-55
2022/07/05 16:02:39;;;;;;;;;;;;;;;;;;2206743;67;1308;-54
2022/07/05 16:05:12;;;;;;;;;;;;;;;;;;2207068;67;1294;-57
2022/07/05 16:07:45;;;;;;;;;;;;;;;;;;2206907;67;1121;-58
2022/07/05 16:10:22;;;;;;;;;;;;;;;;;;2206452;67;1214;-57
2022/07/05 16:12:56;;;;;;;;;;;;;;;;;;2206720;59;1673;-55
2022/07/05 16:18:18;;;;;;;;;;;;;;;;;;2206081;67;1598;-55
2022/07/05 16:20:52;;;;;;;;;;;;;;;;;;2205928;59;1054;-55
2022/07/05 16:23:25;;;;;;;;;;;;;;;;;;2206844;67;1226;-58
2022/07/05 16:26:01;;;;;;;;;;;;;;;;;;2207700;59;1253;-54
2022/07/05 16:28:34;;;;;;;;;;;;;;;;;;2207608;67;1294;-54
2022/07/05 16:31:08;;;;;;;;;;;;;;;;;;2205820;67;2069;-54
2022/07/05 16:33:42;;;;;;;;;;;;;;;;;;2207493;59;1230;-54
2022/07/05 16:36:16;;;;;;;;;;;;;;;;;;2208107;67;1920;-55
2022/07/05 16:38:50;;;;;;;;;;;;;;;;;;2208613;67;1112;-54
2022/07/05 16:41:26;;;;;;;;;;;;;;;;;;2207262;59;2027;-55
2022/07/05 16:43:59;;;;;;;;;;;;;;;;;;2207072;59;1082;-53
2022/07/05 16:46:32;;;;;;;;;;;;;;;;;;2206341;67;1245;-54
2022/07/05 16:49:05;;;;;;;;;;;;;;;;;;2208084;67;1195;-53
2022/07/05 16:51:38;;;;;;;;;;;;;;;;;;2207291;67;1203;-55
2022/07/05 16:54:11;;;;;;;;;;;;;;;;;;2207670;67;1236;-56
2022/07/05 16:56:47;;;;;;;;;;;;;;;;;;2207154;67;1933;-56
2022/07/05 16:59:21;;;;;;;;;;;;;;;;;;2208201;67;1119;-58
2022/07/05 17:01:54;;;;;;;;;;;;;;;;;;2206968;67;1210;-55
2022/07/05 17:04:27;;;;;;;;;;;;;;;;;;2208051;59;1199;-55
2022/07/05 17:07:00;;;;;;;;;;;;;;;;;;2206610;59;1236;-54
2022/07/05 17:09:33;;;;;;;;;;;;;;;;;;2206172;67;1624;-54
2022/07/05 17:12:10;;;;;;;;;;;;;;;;;;2206720;59;1335;-54
2022/07/05 17:14:43;;;;;;;;;;;;;;;;;;2207156;67;1136;-54
2022/07/05 17:17:16;;;;;;;;;;;;;;;;;;2206801;67;1908;-58
2022/07/05 17:19:49;;;;;;;;;;;;;;;;;;2206664;67;1099;-53
2022/07/05 17:22:23;;;;;;;;;;;;;;;;;;2206878;67;1206;-58
2022/07/05 17:24:56;;;;;;;;;;;;;;;;;;2206697;67;1151;-54
2022/07/05 17:27:32;;;;;;;;;;;;;;;;;;2206637;59;1316;-54
2022/07/05 17:30:05;;;;;;;;;;;;;;;;;;2206184;67;1210;-54
2022/07/05 17:32:38;;;;;;;;;;;;;;;;;;2206353;67;1243;-55
2022/07/05 17:35:12;;;;;;;;;;;;;;;;;;2206500;67;1245;-55
2022/07/05 17:37:45;;;;;;;;;;;;;;;;;;2206731;67;1936;-55
2022/07/05 17:40:18;;;;;;;;;;;;;;;;;;2206427;67;1569;-56
2022/07/05 17:42:54;;;;;;;;;;;;;;;;;;2207144;59;2281;-53
2022/07/05 17:45:27;;;;;;;;;;;;;;;;;;2207074;67;1140;-55
2022/07/05 17:48:00;;;;;;;;;;;;;;;;;;2206784;67;1271;-53
2022/07/05 17:50:34;;;;;;;;;;;;;;;;;;2207318;67;1196;-55
2022/07/05 17:53:07;;;;;;;;;;;;;;;;;;2207482;67;1230;-55
2022/07/05 17:55:40;;;;;;;;;;;;;;;;;;2207905;67;1936;-53
2022/07/05 17:58:17;;;;;;;;;;;;;;;;;;2208187;67;1186;-55
2022/07/05 18:00:50;;;;;;;;;;;;;;;;;;2207777;67;1146;-53
2022/07/05 18:03:24;;;;;;;;;;;;;;;;;;2207036;59;1276;-54
2022/07/05 18:05:57;;;;;;;;;;;;;;;;;;2206884;67;1099;-53
2022/07/05 18:08:30;;;;;;;;;;;;;;;;;;2206904;67;1145;-58
2022/07/05 18:11:03;;;;;;;;;;;;;;;;;;2206603;59;1295;-54
2022/07/05 18:13:39;;;;;;;;;;;;;;;;;;2206653;67;1165;-53
2022/07/05 18:16:15;;;;;;;;;;;;;;;;;;2206379;67;1939;-53
2022/07/05 18:18:48;;;;;;;;;;;;;;;;;;2206923;67;1167;-55
2022/07/05 18:21:21;;;;;;;;;;;;;;;;;;2207088;67;1271;-56
2022/07/05 18:23:55;;;;;;;;;;;;;;;;;;2207611;67;1076;-58
2022/07/05 18:26:28;;;;;;;;;;;;;;;;;;2206580;59;1286;-60